Time;durP1;ratioP1;P1;durP2;ratioP2;P2;SDS_P1;SDS_P2;PMS_P1;PMS_P2;Temp;Humidity;BMP_temperature;BMP_pressure;BME280_temperature;BME280_humidity;BME280_pressure;Samples;Min_cycle;Max_cycle;Signal;HPM_P1;HPM_P2
2021/05/08 00:01:52;;;;;;;11.73;2.50;;;;;;;17.57;51.48;93386.91;6092475;23;20117;-90
2021/05/08 00:04:17;;;;;;;5.60;2.22;;;;;;;17.70;51.74;93411.69;6084963;23;20433;-89
2021/05/08 00:06:45;;;;;;;8.02;2.20;;;;;;;17.53;51.54;93375.34;6085359;23;20460;-87
2021/05/08 00:09:10;;;;;;;4.85;2.35;;;;;;;17.64;51.88;93400.47;6082339;23;20006;-88
2021/05/08 00:11:36;;;;;;;12.70;3.63;;;;;;;17.73;51.70;93416.38;6069340;23;20034;-92
2021/05/08 00:14:02;;;;;;;10.48;2.40;;;;;;;17.56;51.95;93397.94;6087358;23;20449;-92
2021/05/08 00:16:28;;;;;;;10.75;2.13;;;;;;;17.67;51.96;93417.72;6081717;23;20014;-86
2021/05/08 00:18:53;;;;;;;9.13;2.63;;;;;;;17.50;51.84;93385.94;6085181;23;20448;-91
2021/05/08 00:21:19;;;;;;;12.80;5.93;;;;;;;17.71;51.87;93419.38;6080886;23;20033;-90
2021/05/08 00:23:45;;;;;;;7.05;2.60;;;;;;;17.44;52.29;93381.97;6075171;23;20033;-90
2021/05/08 00:26:10;;;;;;;9.05;2.35;;;;;;;17.52;52.50;93394.38;6081322;23;20067;-93
2021/05/08 00:28:36;;;;;;;7.57;2.97;;;;;;;17.59;52.69;93414.06;6080456;23;19998;-90
2021/05/08 00:31:01;;;;;;;9.60;3.08;;;;;;;17.53;52.77;93430.69;6085106;23;20330;-90
2021/05/08 00:33:26;;;;;;;5.28;2.05;;;;;;;17.48;52.49;93437.03;6078751;23;20508;-89
2021/05/08 00:35:52;;;;;;;6.35;2.35;;;;;;;17.18;50.51;93415.22;6105111;23;20025;-85
2021/05/08 00:38:17;;;;;;;8.30;2.55;;;;;;;17.36;48.09;93455.75;6088832;23;20084;-87
2021/05/08 00:40:43;;;;;;;6.60;2.53;;;;;;;17.29;48.04;93461.69;6089010;23;20002;-88
2021/05/08 00:43:09;;;;;;;7.35;2.58;;;;;;;17.26;49.02;93485.63;6085307;23;20456;-87
2021/05/08 00:45:34;;;;;;;3.95;2.60;;;;;;;17.21;49.98;93496.53;6077581;23;20018;-85
2021/05/08 00:48:10;;;;;;;7.43;4.30;;;;;;;16.96;52.21;93503.03;6084601;23;20046;-85
2021/05/08 00:50:36;;;;;;;10.18;5.38;;;;;;;16.62;53.46;93480.22;6081642;23;20077;-89
2021/05/08 00:53:04;;;;;;;13.10;7.18;;;;;;;16.70;54.71;93516.69;6087668;23;20014;-87
2021/05/08 00:55:30;;;;;;;14.13;6.22;;;;;;;16.60;55.47;93523.25;6081932;23;20488;-91
2021/05/08 00:57:56;;;;;;;9.45;5.40;;;;;;;16.56;55.47;93532.22;6084086;23;20041;-87
2021/05/08 01:00:22;;;;;;;12.38;6.15;;;;;;;16.33;55.99;93511.28;6078048;23;20131;-87
2021/05/08 01:02:48;;;;;;;9.85;6.15;;;;;;;16.35;56.41;93526.97;6077857;23;20015;-87
2021/05/08 01:05:15;;;;;;;11.18;6.30;;;;;;;16.29;56.41;93537.03;6082830;23;20093;-90
2021/05/08 01:07:41;;;;;;;9.93;7.03;;;;;;;16.22;56.77;93562.72;6083476;23;20002;-83
2021/05/08 01:10:12;;;;;;;10.52;5.47;;;;;;;16.07;57.47;93576.66;6085728;23;20212;-91
2021/05/08 01:12:37;;;;;;;7.68;5.93;;;;;;;16.06;57.74;93591.06;6081084;23;20014;-85
2021/05/08 01:15:10;;;;;;;10.02;7.95;;;;;;;15.94;57.94;93589.91;6082731;23;20825;-89
2021/05/08 01:17:37;;;;;;;11.00;9.90;;;;;;;15.86;59.31;93612.09;6085035;23;20062;-85
2021/05/08 01:20:05;;;;;;;12.85;11.63;;;;;;;15.48;61.67;93601.50;6089205;23;20520;-83
2021/05/08 01:22:33;;;;;;;23.48;13.40;;;;;;;15.61;61.92;93629.03;6081090;23;20026;-85
2021/05/08 01:24:59;;;;;;;20.80;13.50;;;;;;;15.59;62.63;93634.66;6086378;23;20048;-90
2021/05/08 01:27:25;;;;;;;15.13;13.68;;;;;;;15.50;62.79;93625.13;6081272;23;20512;-88
2021/05/08 01:29:51;;;;;;;20.73;14.68;;;;;;;15.64;63.00;93641.69;6080229;23;20022;-92
2021/05/08 01:32:16;;;;;;;17.42;15.38;;;;;;;15.57;63.30;93644.88;6086833;23;20631;-89
2021/05/08 01:34:41;;;;;;;22.33;17.98;;;;;;;15.66;63.08;93658.13;6084180;23;20337;-92
2021/05/08 01:37:07;;;;;;;18.73;15.00;;;;;;;15.73;62.97;93662.97;6083298;23;20017;-92
2021/05/08 01:39:32;;;;;;;22.50;16.75;;;;;;;15.62;63.09;93657.22;6082590;23;20461;-90
2021/05/08 01:41:58;;;;;;;19.15;15.52;;;;;;;15.48;63.52;93656.66;6085420;23;20580;-88
2021/05/08 01:44:23;;;;;;;20.17;17.73;;;;;;;15.14;64.70;93642.41;6080155;23;20076;-87
2021/05/08 01:46:49;;;;;;;20.80;16.00;;;;;;;15.09;64.79;93633.81;6083165;23;20479;-93
2021/05/08 01:49:14;;;;;;;17.85;14.48;;;;;;;15.11;64.50;93648.34;6082375;23;20330;-90
2021/05/08 01:51:45;;;;;;;20.40;15.45;;;;;;;15.01;64.60;93637.28;6064146;23;20035;-94
2021/05/08 01:54:18;;;;;;;17.33;15.10;;;;;;;15.20;64.58;93663.53;6104883;23;20018;-95
2021/05/08 01:56:47;;;;;;;16.60;14.25;;;;;;;15.26;63.99;93672.88;6083471;23;20037;-91
2021/05/08 01:59:14;;;;;;;17.80;13.13;;;;;;;14.95;64.32;93650.00;6082659;23;20015;-92
2021/05/08 02:01:40;;;;;;;14.68;12.93;;;;;;;15.11;63.70;93674.97;6082864;23;20555;-88
2021/05/08 02:04:09;;;;;;;13.82;12.43;;;;;;;14.90;64.12;93673.34;6079989;23;20010;-92
2021/05/08 02:06:34;;;;;;;15.13;13.07;;;;;;;14.94;64.21;93683.03;6084837;23;20181;-92
2021/05/08 02:09:00;;;;;;;13.82;12.23;;;;;;;14.96;64.17;93675.50;6085585;23;20042;-91
2021/05/08 02:11:25;;;;;;;14.52;13.02;;;;;;;14.81;63.72;93659.28;6081112;23;20018;-93
2021/05/08 02:13:51;;;;;;;14.98;12.05;;;;;;;14.98;63.60;93683.94;6089840;23;20097;-92
2021/05/08 02:16:16;;;;;;;15.40;10.98;;;;;;;14.96;63.37;93688.81;6095094;23;19998;-94
2021/05/08 02:18:41;;;;;;;14.45;10.98;;;;;;;14.89;62.62;93677.88;6082956;23;20018;-92
2021/05/08 02:21:08;;;;;;;11.35;10.15;;;;;;;14.95;62.68;93691.81;6102710;23;20525;-93
2021/05/08 02:23:33;;;;;;;11.10;9.93;;;;;;;15.02;61.91;93711.50;6081632;23;20018;-91
2021/05/08 02:25:59;;;;;;;9.90;8.90;;;;;;;14.96;62.18;93709.31;6090971;23;20030;-88
2021/05/08 02:28:24;;;;;;;9.55;8.40;;;;;;;14.88;61.33;93686.16;6084640;23;20002;-92
2021/05/08 02:30:50;;;;;;;10.93;7.95;;;;;;;14.90;60.07;93716.69;6082272;23;20019;-85
2021/05/08 02:33:15;;;;;;;9.07;7.55;;;;;;;14.61;60.68;93703.31;6081641;23;20354;-84
2021/05/08 02:35:41;;;;;;;8.18;6.72;;;;;;;14.45;61.10;93710.97;6084358;23;20023;-87
2021/05/08 02:38:07;;;;;;;8.15;6.90;;;;;;;14.38;61.30;93726.59;6083742;23;20073;-84
2021/05/08 02:40:36;;;;;;;10.95;7.22;;;;;;;14.26;61.45;93732.53;6080878;23;20477;-92
2021/05/08 02:43:04;;;;;;;7.65;6.90;;;;;;;14.26;61.63;93745.81;6094739;23;20003;-88
2021/05/08 02:45:29;;;;;;;7.40;6.70;;;;;;;14.07;61.95;93752.53;6079847;23;20450;-87
2021/05/08 02:48:07;;;;;;;7.57;6.80;;;;;;;13.83;61.79;93732.47;6079888;23;20018;-88
2021/05/08 02:50:32;;;;;;;6.70;5.85;;;;;;;13.39;62.54;93722.81;6030495;23;20473;-84
2021/05/08 02:52:57;;;;;;;9.35;6.43;;;;;;;13.53;62.81;93759.09;6080990;23;20021;-85
2021/05/08 02:55:23;;;;;;;6.75;6.15;;;;;;;13.65;62.40;93764.59;6079824;23;20011;-81
2021/05/08 02:57:48;;;;;;;6.70;6.10;;;;;;;13.52;62.83;93757.53;6082398;23;20017;-84
2021/05/08 03:00:15;;;;;;;8.05;6.15;;;;;;;13.41;62.96;93767.63;6080901;23;20449;-85
2021/05/08 03:02:41;;;;;;;7.63;6.50;;;;;;;13.35;63.08;93769.63;6079467;23;20345;-85
2021/05/08 03:05:08;;;;;;;11.02;6.20;;;;;;;13.30;63.27;93782.25;6081157;23;20517;-84
2021/05/08 03:07:34;;;;;;;6.45;5.85;;;;;;;13.15;63.72;93780.78;6079727;23;20010;-85
2021/05/08 03:09:59;;;;;;;6.72;5.82;;;;;;;13.16;63.73;93792.97;6085262;23;20420;-84
2021/05/08 03:12:24;;;;;;;6.60;6.03;;;;;;;13.14;63.93;93784.53;6081436;23;20025;-91
2021/05/08 03:14:50;;;;;;;8.40;5.50;;;;;;;12.98;64.03;93776.16;6082715;23;20014;-87
2021/05/08 03:17:15;;;;;;;6.28;5.68;;;;;;;12.93;63.66;93767.53;6080957;23;20022;-90
2021/05/08 03:19:41;;;;;;;5.35;4.88;;;;;;;12.90;63.85;93765.50;6081231;23;20064;-89
2021/05/08 03:22:07;;;;;;;5.55;5.10;;;;;;;13.09;63.69;93791.81;6083670;23;20101;-89
2021/05/08 03:24:32;;;;;;;5.13;4.70;;;;;;;13.18;63.62;93801.41;6082188;23;20467;-85
2021/05/08 03:26:58;;;;;;;5.90;5.30;;;;;;;13.36;63.51;93819.00;6087678;23;20050;-84
2021/05/08 03:29:24;;;;;;;6.07;5.55;;;;;;;13.19;64.25;93792.38;6082599;23;20014;-86
2021/05/08 03:31:49;;;;;;;4.60;4.22;;;;;;;13.34;63.30;93825.69;6081432;23;20018;-90
2021/05/08 03:34:15;;;;;;;4.22;3.40;;;;;;;13.31;62.59;93847.53;6084047;23;20567;-87
2021/05/08 03:36:40;;;;;;;5.78;3.58;;;;;;;13.14;62.57;93827.00;6085148;23;20046;-87
2021/05/08 03:39:06;;;;;;;4.72;3.60;;;;;;;13.22;63.01;93855.44;6085350;23;20077;-88
2021/05/08 03:41:31;;;;;;;3.75;3.45;;;;;;;13.11;63.42;93843.50;6081574;23;20361;-91
2021/05/08 03:43:56;;;;;;;8.27;3.45;;;;;;;13.06;63.64;93854.19;6078772;23;20025;-87
2021/05/08 03:46:23;;;;;;;3.28;2.97;;;;;;;13.11;63.42;93858.59;6083367;23;20010;-88
2021/05/08 03:48:48;;;;;;;5.40;4.28;;;;;;;13.06;63.54;93867.47;6081725;23;20030;-87
2021/05/08 03:51:14;;;;;;;3.70;3.08;;;;;;;12.93;63.72;93855.06;6071546;23;20026;-84
2021/05/08 03:53:39;;;;;;;3.75;3.00;;;;;;;12.92;63.93;93850.84;6081763;23;20046;-84
2021/05/08 03:56:05;;;;;;;5.25;3.78;;;;;;;12.94;64.47;93878.63;6090590;23;20029;-82
2021/05/08 03:58:32;;;;;;;6.38;4.18;;;;;;;12.92;64.64;93872.06;6080631;23;20519;-81
2021/05/08 04:00:58;;;;;;;4.68;4.13;;;;;;;12.92;64.44;93872.06;6084816;23;20002;-91
2021/05/08 04:03:24;;;;;;;4.60;4.15;;;;;;;12.80;64.66;93874.47;6080736;23;20449;-86
2021/05/08 04:05:51;;;;;;;5.95;4.53;;;;;;;12.92;64.91;93885.31;6083375;23;20131;-84
2021/05/08 04:08:17;;;;;;;5.00;4.50;;;;;;;12.93;65.11;93892.19;6080912;23;20029;-88
2021/05/08 04:10:46;;;;;;;6.22;5.63;;;;;;;12.95;65.04;93900.66;6081536;23;20014;-85
2021/05/08 04:13:16;;;;;;;6.20;5.60;;;;;;;12.98;65.07;93902.69;6086055;23;20013;-86
2021/05/08 04:15:42;;;;;;;9.90;5.90;;;;;;;12.89;65.01;93902.63;6082727;23;20340;-82
2021/05/08 04:18:07;;;;;;;7.93;5.97;;;;;;;12.96;65.05;93915.44;6081596;23;20090;-88
2021/05/08 04:20:33;;;;;;;6.93;6.18;;;;;;;13.00;64.67;93921.72;6081711;23;20049;-87
2021/05/08 04:22:59;;;;;;;6.75;6.15;;;;;;;12.57;64.32;93886.88;6088738;23;20077;-86
2021/05/08 04:25:24;;;;;;;6.43;5.82;;;;;;;12.75;64.11;93931.06;6097073;23;20340;-88
2021/05/08 04:27:50;;;;;;;6.88;5.88;;;;;;;12.70;64.22;93928.50;6082634;23;20018;-87
2021/05/08 04:30:16;;;;;;;8.38;5.82;;;;;;;12.64;64.15;93911.13;6084765;23;20487;-87
2021/05/08 04:32:41;;;;;;;6.85;6.25;;;;;;;12.52;63.99;93914.28;6088007;23;20014;-87
2021/05/08 04:35:07;;;;;;;7.45;6.03;;;;;;;12.69;64.27;93916.31;6083799;23;20561;-91
2021/05/08 04:37:32;;;;;;;6.88;6.10;;;;;;;12.82;63.28;93915.50;6073399;23;20033;-92
2021/05/08 04:40:00;;;;;;;5.50;4.82;;;;;;;12.84;62.61;93909.91;6083756;23;20042;-83
2021/05/08 04:42:26;;;;;;;5.43;4.90;;;;;;;12.89;61.39;93915.88;6065466;23;20128;-84
2021/05/08 04:44:51;;;;;;;5.78;4.60;;;;;;;12.99;60.93;93928.13;6083027;23;20513;-86
2021/05/08 04:47:21;;;;;;;5.72;4.43;;;;;;;12.97;61.38;93923.13;6089444;23;20513;-83
2021/05/08 04:49:47;;;;;;;4.55;4.15;;;;;;;13.06;61.18;93933.00;6082561;23;20010;-85
2021/05/08 04:52:13;;;;;;;3.90;3.60;;;;;;;12.99;60.48;93914.88;6094299;23;20029;-93
2021/05/08 04:54:38;;;;;;;6.68;3.58;;;;;;;12.90;60.37;93917.44;6081266;23;20453;-84
2021/05/08 04:57:04;;;;;;;4.15;3.75;;;;;;;12.96;59.43;93931.38;6082516;23;20027;-86
2021/05/08 04:59:30;;;;;;;3.72;3.42;;;;;;;13.15;59.51;93929.38;6082258;23;20010;-87
2021/05/08 05:01:58;;;;;;;3.58;3.28;;;;;;;13.22;58.25;93928.97;6089479;23;20192;-90
2021/05/08 05:04:23;;;;;;;2.85;2.65;;;;;;;13.21;57.77;93932.69;6083380;23;20009;-88
2021/05/08 05:06:49;;;;;;;3.33;3.10;;;;;;;13.51;57.77;93933.84;6023770;23;20022;-89
2021/05/08 05:09:14;;;;;;;3.22;2.92;;;;;;;13.76;56.55;93917.28;6084410;23;20050;-88
2021/05/08 05:11:42;;;;;;;3.08;2.78;;;;;;;14.16;56.10;93894.94;6081561;23;20053;-87
2021/05/08 05:14:08;;;;;;;3.00;2.80;;;;;;;14.84;53.65;93930.00;6065458;23;20400;-86
2021/05/08 05:16:33;;;;;;;2.78;2.22;;;;;;;14.94;53.32;93930.50;6040005;23;20007;-82
2021/05/08 05:18:59;;;;;;;3.47;2.30;;;;;;;14.94;53.09;93932.38;6051028;23;20002;-86
2021/05/08 05:21:27;;;;;;;2.70;2.50;;;;;;;14.91;53.68;93925.00;6065413;23;20026;-86
2021/05/08 05:23:52;;;;;;;4.43;2.20;;;;;;;14.91;53.43;93928.44;6055681;23;20130;-86
2021/05/08 05:26:18;;;;;;;5.30;2.50;;;;;;;14.85;53.93;93929.72;6078827;23;20121;-82
2021/05/08 05:28:46;;;;;;;2.90;2.70;;;;;;;14.58;54.55;93937.94;6088174;23;20009;-84
2021/05/08 05:31:20;;;;;;;2.22;2.13;;;;;;;14.65;54.18;93943.59;6080170;23;20368;-82
2021/05/08 05:33:46;;;;;;;2.85;2.65;;;;;;;14.78;53.90;93948.00;6077803;23;20625;-84
2021/05/08 05:36:11;;;;;;;3.15;2.47;;;;;;;14.43;54.35;93951.66;6081444;23;20024;-89
2021/05/08 05:38:37;;;;;;;3.42;2.40;;;;;;;14.21;55.02;93965.78;6078736;23;20049;-87
2021/05/08 05:41:02;;;;;;;3.20;2.72;;;;;;;13.97;55.52;93955.53;6077015;23;20026;-87
2021/05/08 05:43:27;;;;;;;3.50;3.20;;;;;;;13.99;55.97;93971.13;6085371;23;20366;-87
2021/05/08 05:45:53;;;;;;;2.75;2.55;;;;;;;14.04;55.97;93982.44;6090397;23;20006;-84
2021/05/08 05:48:20;;;;;;;2.50;2.30;;;;;;;14.05;55.88;93978.69;6075806;23;20022;-88
2021/05/08 05:50:46;;;;;;;2.10;2.00;;;;;;;14.06;55.63;93980.25;6082141;23;20022;-85
2021/05/08 05:53:13;;;;;;;2.65;2.45;;;;;;;13.71;55.51;93941.31;6071726;23;20018;-88
2021/05/08 05:55:38;;;;;;;2.85;2.10;;;;;;;13.91;55.00;93962.03;6075863;23;20014;-87
2021/05/08 05:58:04;;;;;;;4.10;2.72;;;;;;;14.02;55.23;93974.00;6080355;23;20002;-86
2021/05/08 06:00:29;;;;;;;3.75;2.03;;;;;;;14.15;54.43;93983.75;6081042;23;20022;-87
2021/05/08 06:02:55;;;;;;;3.13;1.98;;;;;;;14.00;54.73;93973.50;6076870;23;20018;-86
2021/05/08 06:05:21;;;;;;;1.83;1.73;;;;;;;13.87;55.14;93995.63;6077298;23;20018;-82
2021/05/08 06:07:46;;;;;;;1.88;1.63;;;;;;;13.87;55.03;93992.97;6079222;23;22821;-89
2021/05/08 06:10:15;;;;;;;7.43;2.03;;;;;;;13.87;55.25;93998.28;6090984;23;20085;-85
2021/05/08 06:12:59;;;;;;;2.88;2.47;;;;;;;13.76;55.04;93992.44;6078664;23;20165;-86
2021/05/08 06:15:33;;;;;;;2.22;2.03;;;;;;;13.83;55.51;93994.63;6076834;23;20011;-93
2021/05/08 06:17:58;;;;;;;2.38;2.17;;;;;;;13.88;55.26;94013.13;6075109;23;20066;-88
2021/05/08 06:20:23;;;;;;;2.28;2.08;;;;;;;14.00;54.74;94047.91;6082768;23;20288;-82
2021/05/08 06:22:50;;;;;;;2.83;2.53;;;;;;;14.06;55.92;94032.63;6086474;23;20382;-88
2021/05/08 06:25:15;;;;;;;3.53;2.60;;;;;;;13.99;55.79;94042.88;6079496;23;20057;-87
2021/05/08 06:27:41;;;;;;;2.92;1.98;;;;;;;13.91;54.17;94051.59;6080534;23;20026;-87
2021/05/08 06:30:07;;;;;;;1.90;1.80;;;;;;;13.82;54.97;94046.22;6051302;23;20025;-82
2021/05/08 06:32:32;;;;;;;2.40;2.20;;;;;;;13.92;55.12;94053.16;6072718;23;20129;-88
2021/05/08 06:34:58;;;;;;;1.98;1.88;;;;;;;14.01;54.61;94046.81;6103821;23;20457;-85
2021/05/08 06:37:26;;;;;;;2.30;2.00;;;;;;;14.14;54.18;94024.69;6085098;23;20011;-91
2021/05/08 06:39:52;;;;;;;2.55;1.90;;;;;;;14.60;53.00;94024.31;6080344;23;20045;-84
2021/05/08 06:42:18;;;;;;;1.60;1.50;;;;;;;15.02;51.90;93998.91;6079299;23;20405;-86
2021/05/08 06:44:43;;;;;;;1.63;1.52;;;;;;;16.63;47.88;93968.13;6062811;23;20461;-86
2021/05/08 06:47:14;;;;;;;1.50;1.10;;;;;;;18.42;43.53;93993.72;6069016;23;20512;-86
2021/05/08 06:49:44;;;;;;;1.10;1.10;;;;;;;19.36;41.48;93994.41;6059383;23;20536;-86
2021/05/08 06:52:12;;;;;;;2.38;0.90;;;;;;;18.84;41.03;93967.59;6084533;23;20458;-87
2021/05/08 06:54:38;;;;;;;1.88;1.20;;;;;;;19.08;41.31;94031.06;6080210;23;20022;-90
2021/05/08 06:57:05;;;;;;;1.40;1.20;;;;;;;18.40;41.98;94020.06;6077590;23;20014;-88
2021/05/08 06:59:34;;;;;;;2.33;1.45;;;;;;;18.75;41.91;94015.13;6078144;23;20042;-87
2021/05/08 07:02:04;;;;;;;1.50;1.40;;;;;;;18.75;42.31;94011.66;6080786;23;20058;-87
2021/05/08 07:04:29;;;;;;;3.05;1.50;;;;;;;19.44;40.90;94011.53;6083222;23;20056;-87
2021/05/08 07:06:54;;;;;;;1.80;1.70;;;;;;;19.35;40.62;93998.19;6094798;23;20373;-88
2021/05/08 07:09:20;;;;;;;3.22;1.60;;;;;;;18.92;41.15;94011.41;6086612;23;20018;-90
2021/05/08 07:11:45;;;;;;;2.50;1.98;;;;;;;18.59;42.85;94012.31;6080955;23;20026;-84
2021/05/08 07:14:11;;;;;;;13.02;2.72;;;;;;;18.26;42.59;94024.13;6080455;23;20057;-86
2021/05/08 07:16:36;;;;;;;2.65;2.45;;;;;;;17.77;43.59;94017.84;6080603;23;20468;-83
2021/05/08 07:19:01;;;;;;;2.78;2.58;;;;;;;17.50;44.24;94033.25;6082472;23;20430;-88
2021/05/08 07:21:27;;;;;;;2.72;2.47;;;;;;;17.25;44.00;94031.56;6067708;23;20117;-87
2021/05/08 07:27:18;;;;;;;3.15;2.85;;;;;;;16.69;45.61;94041.56;6077376;23;20058;-86
2021/05/08 07:29:44;;;;;;;6.43;2.95;;;;;;;16.69;46.26;94057.59;6084646;23;20046;-82
2021/05/08 07:32:09;;;;;;;2.95;2.75;;;;;;;16.38;46.43;94051.69;6076143;23;20114;-86
2021/05/08 07:34:37;;;;;;;2.88;2.67;;;;;;;16.27;46.30;94047.81;6081556;23;20006;-88
2021/05/08 07:37:03;;;;;;;3.58;3.30;;;;;;;16.22;46.59;94031.97;6096488;23;20010;-87
2021/05/08 07:39:28;;;;;;;3.70;3.08;;;;;;;16.04;46.10;94031.22;6070134;23;20318;-87
2021/05/08 07:41:54;;;;;;;3.78;3.47;;;;;;;16.21;46.92;94051.72;6069791;23;20029;-89
2021/05/08 07:44:19;;;;;;;4.57;3.33;;;;;;;16.55;46.47;94040.97;6083352;23;20018;-85
2021/05/08 07:46:45;;;;;;;3.58;3.28;;;;;;;16.66;46.21;94044.91;6090169;23;20341;-81
2021/05/08 07:49:11;;;;;;;3.85;3.55;;;;;;;16.58;45.79;94029.69;6084133;23;20007;-87
2021/05/08 07:51:36;;;;;;;4.07;3.78;;;;;;;16.46;45.03;94045.56;6082455;23;20116;-88
2021/05/08 07:54:02;;;;;;;3.72;3.42;;;;;;;16.47;45.38;94031.09;6082846;23;20015;-88
2021/05/08 07:56:28;;;;;;;5.15;3.70;;;;;;;16.82;45.67;94040.56;6079985;23;20079;-88
2021/05/08 07:58:53;;;;;;;6.95;3.70;;;;;;;17.69;44.37;94033.59;6081126;23;20442;-88
2021/05/08 08:01:18;;;;;;;4.57;3.30;;;;;;;18.13;41.36;94034.03;6085290;23;20010;-86
2021/05/08 08:03:44;;;;;;;3.35;3.05;;;;;;;18.45;40.89;94017.16;6083853;23;20093;-86
2021/05/08 08:06:09;;;;;;;2.95;2.45;;;;;;;18.50;40.99;94019.63;6080306;23;20054;-87
2021/05/08 08:08:44;;;;;;;3.00;2.80;;;;;;;18.34;41.29;94029.41;6090059;23;20461;-85
2021/05/08 08:11:09;;;;;;;3.80;3.50;;;;;;;18.21;41.33;94025.13;6089388;23;20457;-87
2021/05/08 08:13:37;;;;;;;3.15;2.95;;;;;;;18.02;41.86;94039.00;6084001;23;20010;-86
2021/05/08 08:16:03;;;;;;;3.35;3.08;;;;;;;17.54;42.05;94033.41;6094122;23;20002;-88
2021/05/08 08:18:32;;;;;;;3.03;2.83;;;;;;;17.43;43.58;94048.25;6081780;23;20322;-85
2021/05/08 08:20:57;;;;;;;4.15;3.75;;;;;;;17.50;43.02;94054.63;6086759;23;20026;-86
2021/05/08 08:23:25;;;;;;;3.80;3.50;;;;;;;17.52;43.15;94063.13;6066056;23;20018;-88
2021/05/08 08:25:51;;;;;;;6.55;4.35;;;;;;;17.57;44.30;94054.91;6087857;23;20169;-83
2021/05/08 08:28:22;;;;;;;8.95;4.85;;;;;;;17.64;44.38;94057.84;6095019;23;20046;-87
2021/05/08 08:30:50;;;;;;;6.15;4.18;;;;;;;17.61;43.80;94060.41;6080310;23;20504;-82
2021/05/08 08:33:16;;;;;;;4.18;3.78;;;;;;;17.65;42.57;94053.28;6084217;23;20022;-87
2021/05/08 08:35:46;;;;;;;4.38;3.60;;;;;;;17.59;43.77;94063.38;6080526;23;20090;-85
2021/05/08 08:38:15;;;;;;;8.00;3.80;;;;;;;17.47;43.45;94065.97;6088740;23;20026;-86
2021/05/08 08:40:43;;;;;;;4.00;3.70;;;;;;;17.43;43.96;94061.59;6090458;23;20002;-86
2021/05/08 08:43:09;;;;;;;4.30;3.90;;;;;;;17.49;43.88;94063.78;6081801;23;20039;-86
2021/05/08 08:45:34;;;;;;;3.58;3.28;;;;;;;17.35;44.24;94046.44;6081280;23;20049;-82
2021/05/08 08:48:01;;;;;;;5.05;3.83;;;;;;;17.41;44.03;94056.56;6080888;23;20041;-85
2021/05/08 08:50:30;;;;;;;7.10;4.57;;;;;;;17.59;44.31;94057.28;6084036;23;20030;-87
2021/05/08 08:52:58;;;;;;;5.80;4.47;;;;;;;17.67;43.61;94054.53;6090076;23;20636;-87
2021/05/08 08:55:26;;;;;;;4.45;4.05;;;;;;;18.03;43.39;94067.28;6085085;23;19999;-85
2021/05/08 08:57:52;;;;;;;4.35;3.97;;;;;;;18.04;42.88;94062.72;6073796;23;20097;-86
2021/05/08 09:00:18;;;;;;;4.70;4.20;;;;;;;18.21;41.84;94046.53;6080213;23;20118;-85
2021/05/08 09:02:46;;;;;;;10.32;4.18;;;;;;;18.22;41.96;94045.44;6086321;23;20006;-86
2021/05/08 09:05:23;;;;;;;6.35;3.80;;;;;;;18.38;42.10;94050.91;6081667;23;20384;-87
2021/05/08 09:07:52;;;;;;;4.43;4.03;;;;;;;18.50;41.80;94054.41;6081238;23;20465;-84
2021/05/08 09:10:22;;;;;;;4.53;4.10;;;;;;;18.36;42.22;94053.94;6081393;23;20019;-86
2021/05/08 09:12:48;;;;;;;5.03;4.07;;;;;;;18.33;42.38;94045.78;6079985;23;20027;-83
2021/05/08 09:15:13;;;;;;;4.53;4.10;;;;;;;18.18;41.46;94036.47;6080764;23;20018;-81
2021/05/08 09:17:44;;;;;;;8.18;4.00;;;;;;;18.14;42.33;94046.28;6091919;23;20010;-85
2021/05/08 09:20:13;;;;;;;6.05;4.28;;;;;;;17.95;41.85;94021.91;6091570;23;20375;-82
2021/05/08 09:22:40;;;;;;;5.53;4.78;;;;;;;18.27;41.98;94047.13;6065107;23;20073;-84
2021/05/08 09:25:11;;;;;;;4.35;3.95;;;;;;;18.33;41.76;94046.56;6082587;23;20019;-82
2021/05/08 09:27:38;;;;;;;4.68;3.72;;;;;;;18.35;41.35;94039.00;6086890;23;20129;-88
2021/05/08 09:30:05;;;;;;;6.63;4.25;;;;;;;18.36;40.89;94047.81;6071982;23;20053;-85
2021/05/08 09:32:44;;;;;;;6.05;4.43;;;;;;;18.65;41.14;94031.59;6078946;23;20322;-82
2021/05/08 09:35:12;;;;;;;6.72;4.68;;;;;;;18.66;41.17;94045.78;6094156;23;20083;-85
2021/05/08 09:37:38;;;;;;;5.68;4.22;;;;;;;18.52;40.62;94041.47;6066962;23;20048;-85
2021/05/08 09:40:21;;;;;;;4.75;3.95;;;;;;;18.88;40.76;94042.66;6084740;23;20090;-86
2021/05/08 09:42:52;;;;;;;4.53;3.53;;;;;;;19.05;40.35;94042.47;6084752;23;20014;-83
2021/05/08 09:45:21;;;;;;;4.53;4.13;;;;;;;19.10;41.41;94023.50;6088383;23;20421;-85
2021/05/08 09:47:47;;;;;;;7.20;4.57;;;;;;;19.40;39.76;94032.81;6067258;23;21884;-84
2021/05/08 09:50:13;;;;;;;14.18;5.00;;;;;;;19.39;39.41;94027.81;6083927;23;20452;-84
2021/05/08 09:52:58;;;;;;;4.15;3.85;;;;;;;19.10;40.18;94036.09;6077548;23;20050;-87
2021/05/08 09:55:27;;;;;;;3.75;3.45;;;;;;;19.14;39.85;94029.72;6084070;23;20021;-86
2021/05/08 09:58:04;;;;;;;9.70;3.83;;;;;;;19.30;40.05;94038.63;6068523;23;20018;-86
2021/05/08 10:00:34;;;;;;;4.28;3.88;;;;;;;19.23;39.78;94051.81;6079953;23;20077;-84
2021/05/08 10:03:13;;;;;;;4.22;3.83;;;;;;;19.23;38.52;94041.09;6087184;23;20026;-84
2021/05/08 10:05:39;;;;;;;4.32;3.40;;;;;;;19.37;38.67;94051.47;6089134;23;20482;-82
2021/05/08 10:08:06;;;;;;;3.22;2.92;;;;;;;19.21;38.40;94062.09;6084303;23;20006;-81
2021/05/08 10:10:35;;;;;;;3.15;2.95;;;;;;;19.24;38.70;94061.44;6082456;23;20026;-87
2021/05/08 10:13:06;;;;;;;6.95;3.08;;;;;;;19.05;39.34;94066.56;6084200;23;20115;-84
2021/05/08 10:15:33;;;;;;;3.65;3.35;;;;;;;19.03;39.01;94050.03;6078754;23;20540;-84
2021/05/08 10:18:01;;;;;;;3.05;2.85;;;;;;;19.29;39.69;94036.31;6087131;23;20048;-85
2021/05/08 10:20:26;;;;;;;3.65;3.38;;;;;;;19.51;39.66;94038.53;6082805;23;20006;-85
2021/05/08 10:22:57;;;;;;;4.57;4.05;;;;;;;19.88;39.22;94042.69;6019284;23;20039;-84
2021/05/08 10:25:23;;;;;;;3.25;2.53;;;;;;;19.94;36.97;94045.88;6027325;23;20083;-85
2021/05/08 10:27:51;;;;;;;2.97;2.78;;;;;;;20.05;37.54;94025.50;5998267;23;20030;-82
2021/05/08 10:30:29;;;;;;;3.55;2.50;;;;;;;19.98;36.42;94030.69;6031562;23;20105;-84
2021/05/08 10:32:57;;;;;;;5.50;2.50;;;;;;;20.13;36.46;94031.88;6032982;23;20094;-86
2021/05/08 10:35:51;;;;;;;2.40;2.20;;;;;;;19.91;36.78;94025.13;6038207;23;20108;-85
2021/05/08 10:38:34;;;;;;;5.50;2.47;;;;;;;19.83;36.21;94018.00;6020016;23;20513;-84
2021/05/08 10:41:10;;;;;;;4.45;2.08;;;;;;;19.98;36.14;94030.69;6026402;23;20083;-84
2021/05/08 10:43:43;;;;;;;2.45;2.22;;;;;;;19.96;36.55;94022.19;6022636;23;20046;-83
2021/05/08 10:46:15;;;;;;;6.38;3.35;;;;;;;19.82;36.88;94024.50;6024812;23;20019;-84
2021/05/08 10:49:07;;;;;;;2.70;2.50;;;;;;;19.49;36.06;94013.19;6015553;23;20662;-83
2021/05/08 10:51:54;;;;;;;3.40;3.00;;;;;;;19.71;36.45;94031.44;6030820;23;20023;-82
2021/05/08 10:54:44;;;;;;;3.75;2.22;;;;;;;19.95;35.85;94028.69;6030678;23;20912;-81
2021/05/08 10:57:26;;;;;;;6.45;2.08;;;;;;;19.99;34.92;94020.75;6032405;23;20019;-84
2021/05/08 11:00:12;;;;;;;3.38;2.10;;;;;;;19.83;35.69;94028.72;6020924;23;20086;-86
2021/05/08 11:02:44;;;;;;;2.08;1.63;;;;;;;19.88;35.37;94031.19;6020850;23;20018;-80
2021/05/08 11:05:23;;;;;;;4.47;2.75;;;;;;;19.99;33.95;94031.47;6024529;23;20007;-85
2021/05/08 11:07:48;;;;;;;4.28;2.22;;;;;;;19.81;34.79;94036.31;6022300;23;20106;-85
2021/05/08 11:10:33;;;;;;;6.10;2.60;;;;;;;19.94;34.04;94029.78;6022119;23;20447;-87
2021/05/08 11:13:09;;;;;;;4.05;1.80;;;;;;;19.86;33.39;94030.72;6027015;23;20046;-89
2021/05/08 11:16:11;;;;;;;4.45;2.20;;;;;;;19.75;34.83;94035.00;6020516;23;20121;-88
2021/05/08 11:18:41;;;;;;;2.35;2.03;;;;;;;19.93;35.24;94014.84;6023980;23;20087;-88
2021/05/08 11:21:16;;;;;;;2.38;1.80;;;;;;;20.19;34.08;94031.25;6038625;23;20038;-84
2021/05/08 11:23:42;;;;;;;;;;;;;;;20.22;35.17;94025.22;6081816;23;20013;-85
2021/05/08 11:26:25;;;;;;;1.90;1.60;;;;;;;20.12;34.03;94025.72;6084089;23;19956;-85
2021/05/08 11:29:22;;;;;;;3.30;1.77;;;;;;;20.08;34.36;94019.47;6079157;23;20021;-87
2021/05/08 11:31:52;;;;;;;1.67;1.58;;;;;;;19.87;34.13;94033.06;6080480;23;20049;-85
2021/05/08 11:34:18;;;;;;;1.80;1.70;;;;;;;19.75;34.55;94029.63;6080636;23;20029;-82
2021/05/08 11:36:50;;;;;;;3.20;2.13;;;;;;;19.54;34.92;94023.69;6080123;23;20015;-85
2021/05/08 11:39:24;;;;;;;4.03;2.28;;;;;;;19.50;34.08;94014.75;6066306;23;20014;-85